EWG32A EDDS-EDDW
Flight info
| Callsign | EWG32A |
|---|---|
| Flight time | 0h 56m |
| Altitude | 22000 |
| Route | TAGIK2H TAGIK Z3 ABUMO N850 NIE Z88 VERED VERED3P |
| Aircraft | A21N/M-SDE2E3FGHIJ1RWXY/LB1 |
Departure
| Time | 2026-04-30 18:33 |
|---|---|
| Airport | Stuttgart Airport (EDDS) |
Arrival
| Time | 2026-04-30 19:29 |
|---|---|
| Airport | Bremen Airport (EDDW) |
| Time | Latitude | Longitude | Altitude | Speed | Heading |
|---|---|---|---|---|---|
| 2026-04-30 18:03 | 48.68875 | 9.19372 | 1294 ft | 0 kts | 344° |
| 2026-04-30 18:22 | 48.68874 | 9.19372 | 1294 ft | 1 kts | 344° |
| 2026-04-30 18:22 | 48.68845 | 9.19377 | 1294 ft | 2 kts | 7° |
| 2026-04-30 18:22 | 48.68831 | 9.19372 | 1294 ft | 2 kts | 19° |
| 2026-04-30 18:23 | 48.68818 | 9.19363 | 1294 ft | 2 kts | 32° |
| 2026-04-30 18:23 | 48.68805 | 9.19348 | 1294 ft | 2 kts | 44° |
| 2026-04-30 18:23 | 48.68796 | 9.19332 | 1294 ft | 2 kts | 56° |
| 2026-04-30 18:23 | 48.68789 | 9.19312 | 1294 ft | 2 kts | 68° |
| 2026-04-30 18:24 | 48.68785 | 9.19297 | 1294 ft | 0 kts | 73° |
| 2026-04-30 18:24 | 48.68785 | 9.19298 | 1294 ft | 0 kts | 73° |
| 2026-04-30 18:26 | 48.68788 | 9.19312 | 1294 ft | 2 kts | 73° |
| 2026-04-30 18:26 | 48.68797 | 9.19359 | 1294 ft | 6 kts | 74° |
| 2026-04-30 18:26 | 48.68813 | 9.19442 | 1294 ft | 11 kts | 73° |
| 2026-04-30 18:27 | 48.68874 | 9.19762 | 1294 ft | 16 kts | 74° |
| 2026-04-30 18:27 | 48.68886 | 9.19860 | 1294 ft | 8 kts | 97° |
| 2026-04-30 18:28 | 48.68813 | 9.19929 | 1292 ft | 9 kts | 149° |
| 2026-04-30 18:28 | 48.68737 | 9.19971 | 1289 ft | 13 kts | 163° |
| 2026-04-30 18:28 | 48.68682 | 9.19994 | 1287 ft | 0 kts | 164° |
| 2026-04-30 18:30 | 48.68665 | 9.20002 | 1286 ft | 4 kts | 164° |
| 2026-04-30 18:31 | 48.68618 | 9.20022 | 1285 ft | 7 kts | 163° |
| 2026-04-30 18:31 | 48.68593 | 9.20124 | 1282 ft | 7 kts | 76° |
| 2026-04-30 18:32 | 48.68602 | 9.20171 | 1281 ft | 0 kts | 74° |
| 2026-04-30 18:32 | 48.68635 | 9.20351 | 1277 ft | 53 kts | 74° |
| 2026-04-30 18:32 | 48.69103 | 9.22811 | 1300 ft | 172 kts | 74° |
| 2026-04-30 18:33 | 48.69403 | 9.24593 | 1977 ft | 176 kts | 78° |
| 2026-04-30 18:33 | 48.70015 | 9.27925 | 3687 ft | 171 kts | 75° |
| 2026-04-30 18:33 | 48.70357 | 9.29702 | 4181 ft | 187 kts | 75° |
| 2026-04-30 18:34 | 48.71008 | 9.31503 | 4572 ft | 211 kts | 46° |
| 2026-04-30 18:34 | 48.74263 | 9.32074 | 5395 ft | 270 kts | 354° |
| 2026-04-30 18:34 | 48.76122 | 9.31529 | 6127 ft | 277 kts | 353° |
| 2026-04-30 18:35 | 48.78027 | 9.30988 | 6977 ft | 279 kts | 354° |
| 2026-04-30 18:35 | 48.79937 | 9.30484 | 7827 ft | 281 kts | 354° |
| 2026-04-30 18:35 | 48.81842 | 9.30014 | 8641 ft | 283 kts | 355° |
| 2026-04-30 18:36 | 48.85756 | 9.29107 | 10266 ft | 287 kts | 355° |
| 2026-04-30 18:36 | 48.87719 | 9.28666 | 10927 ft | 294 kts | 355° |
| 2026-04-30 18:36 | 48.91995 | 9.27727 | 11675 ft | 328 kts | 355° |
| 2026-04-30 18:37 | 48.94311 | 9.27219 | 12114 ft | 341 kts | 354° |
| 2026-04-30 18:37 | 48.96674 | 9.26696 | 12828 ft | 345 kts | 354° |
| 2026-04-30 18:37 | 48.99030 | 9.26174 | 13588 ft | 347 kts | 354° |
| 2026-04-30 18:37 | 49.01445 | 9.25640 | 14323 ft | 350 kts | 354° |
| 2026-04-30 18:38 | 49.03840 | 9.25109 | 15008 ft | 353 kts | 355° |
| 2026-04-30 18:38 | 49.06288 | 9.24567 | 15706 ft | 356 kts | 355° |
| 2026-04-30 18:38 | 49.08735 | 9.24025 | 16378 ft | 358 kts | 355° |
| 2026-04-30 18:38 | 49.11192 | 9.23484 | 17035 ft | 361 kts | 355° |
| 2026-04-30 18:39 | 49.13689 | 9.22932 | 17671 ft | 364 kts | 355° |
| 2026-04-30 18:39 | 49.16188 | 9.22379 | 18299 ft | 367 kts | 355° |
| 2026-04-30 18:39 | 49.18752 | 9.21813 | 18891 ft | 370 kts | 355° |
| 2026-04-30 18:39 | 49.21319 | 9.21246 | 19481 ft | 374 kts | 355° |
| 2026-04-30 18:40 | 49.23894 | 9.20674 | 20068 ft | 377 kts | 355° |
| 2026-04-30 18:40 | 49.26495 | 9.20096 | 20641 ft | 380 kts | 355° |
| 2026-04-30 18:40 | 49.29107 | 9.19515 | 21196 ft | 382 kts | 355° |
| 2026-04-30 18:40 | 49.31741 | 9.18929 | 21754 ft | 385 kts | 355° |
| 2026-04-30 18:41 | 49.34388 | 9.18340 | 22187 ft | 388 kts | 355° |
| 2026-04-30 18:41 | 49.37073 | 9.17742 | 22301 ft | 388 kts | 355° |
| 2026-04-30 18:41 | 49.39744 | 9.17144 | 22306 ft | 387 kts | 355° |
| 2026-04-30 18:41 | 49.42415 | 9.16546 | 22309 ft | 387 kts | 355° |
| 2026-04-30 18:42 | 49.45048 | 9.15959 | 22308 ft | 387 kts | 355° |
| 2026-04-30 18:42 | 49.50396 | 9.14762 | 22315 ft | 387 kts | 355° |
| 2026-04-30 18:42 | 49.53041 | 9.14168 | 22316 ft | 388 kts | 355° |
| 2026-04-30 18:45 | 49.79861 | 9.11788 | 22319 ft | 386 kts | 1° |
| 2026-04-30 18:45 | 49.82542 | 9.11668 | 22323 ft | 386 kts | 1° |
| 2026-04-30 18:45 | 49.85208 | 9.11547 | 22324 ft | 386 kts | 1° |
| 2026-04-30 18:46 | 49.87905 | 9.11424 | 22324 ft | 386 kts | 2° |
| 2026-04-30 18:46 | 49.90586 | 9.11301 | 22327 ft | 387 kts | 2° |
| 2026-04-30 18:46 | 49.93278 | 9.11177 | 22322 ft | 387 kts | 1° |
| 2026-04-30 18:46 | 49.95967 | 9.11053 | 22329 ft | 388 kts | 1° |
| 2026-04-30 18:47 | 49.98678 | 9.10927 | 22331 ft | 387 kts | 1° |
| 2026-04-30 18:47 | 50.01347 | 9.10801 | 22327 ft | 387 kts | 1° |
| 2026-04-30 18:47 | 50.04036 | 9.10676 | 22324 ft | 387 kts | 2° |
| 2026-04-30 18:47 | 50.06760 | 9.10549 | 22325 ft | 387 kts | 2° |
| 2026-04-30 18:48 | 50.09406 | 9.10425 | 22320 ft | 387 kts | 1° |
| 2026-04-30 18:48 | 50.12112 | 9.10298 | 22317 ft | 387 kts | 2° |
| 2026-04-30 18:48 | 50.14809 | 9.10172 | 22312 ft | 386 kts | 2° |
| 2026-04-30 18:48 | 50.17379 | 9.10051 | 22314 ft | 386 kts | 2° |
| 2026-04-30 18:49 | 50.19971 | 9.09930 | 22315 ft | 387 kts | 2° |
| 2026-04-30 18:49 | 50.22660 | 9.09802 | 22319 ft | 387 kts | 2° |
| 2026-04-30 18:49 | 50.25164 | 9.09685 | 22320 ft | 388 kts | 2° |
| 2026-04-30 18:49 | 50.27826 | 9.09560 | 22322 ft | 388 kts | 2° |
| 2026-04-30 18:50 | 50.30605 | 9.09428 | 22326 ft | 388 kts | 2° |
| 2026-04-30 18:50 | 50.33295 | 9.09303 | 22332 ft | 388 kts | 2° |
| 2026-04-30 18:50 | 50.35993 | 9.09174 | 22336 ft | 387 kts | 2° |
| 2026-04-30 18:50 | 50.38685 | 9.09047 | 22338 ft | 387 kts | 2° |
| 2026-04-30 18:51 | 50.41377 | 9.08919 | 22340 ft | 387 kts | 2° |
| 2026-04-30 18:51 | 50.44060 | 9.08792 | 22342 ft | 387 kts | 2° |
| 2026-04-30 18:51 | 50.46748 | 9.08666 | 22340 ft | 388 kts | 2° |
| 2026-04-30 18:51 | 50.49435 | 9.08538 | 22341 ft | 388 kts | 2° |
| 2026-04-30 18:52 | 50.52139 | 9.08408 | 22344 ft | 388 kts | 2° |
| 2026-04-30 18:52 | 50.54845 | 9.08277 | 22347 ft | 387 kts | 2° |
| 2026-04-30 18:52 | 50.57544 | 9.08150 | 22345 ft | 388 kts | 2° |
| 2026-04-30 18:52 | 50.60224 | 9.08022 | 22346 ft | 387 kts | 2° |
| 2026-04-30 18:53 | 50.62915 | 9.07893 | 22350 ft | 387 kts | 2° |
| 2026-04-30 18:53 | 50.65605 | 9.07766 | 22352 ft | 387 kts | 2° |
| 2026-04-30 18:53 | 50.68282 | 9.07638 | 22347 ft | 387 kts | 2° |
| 2026-04-30 18:53 | 50.70977 | 9.07509 | 22347 ft | 387 kts | 2° |
| 2026-04-30 18:54 | 50.73655 | 9.07380 | 22353 ft | 387 kts | 2° |
| 2026-04-30 18:54 | 50.76349 | 9.07249 | 22358 ft | 387 kts | 2° |
| 2026-04-30 18:54 | 50.79060 | 9.07118 | 22363 ft | 388 kts | 2° |
| 2026-04-30 18:54 | 50.81742 | 9.06990 | 22369 ft | 388 kts | 2° |
| 2026-04-30 18:55 | 50.84449 | 9.06860 | 22369 ft | 388 kts | 2° |
| 2026-04-30 18:55 | 50.89846 | 9.06601 | 22370 ft | 389 kts | 2° |
| 2026-04-30 18:55 | 50.92545 | 9.06469 | 22377 ft | 389 kts | 2° |
| 2026-04-30 18:56 | 50.97947 | 9.06209 | 22376 ft | 388 kts | 2° |
| 2026-04-30 18:56 | 51.00680 | 9.06077 | 22386 ft | 394 kts | 2° |
| 2026-04-30 18:56 | 51.03475 | 9.05947 | 22384 ft | 406 kts | 2° |
| 2026-04-30 18:57 | 51.09156 | 9.05670 | 22384 ft | 411 kts | 2° |
| 2026-04-30 18:57 | 51.12043 | 9.05526 | 22383 ft | 412 kts | 2° |
| 2026-04-30 18:57 | 51.14731 | 9.05393 | 22388 ft | 412 kts | 2° |
| 2026-04-30 18:58 | 51.20357 | 9.05120 | 22379 ft | 411 kts | 2° |
| 2026-04-30 18:58 | 51.23124 | 9.04987 | 22383 ft | 411 kts | 2° |
| 2026-04-30 18:58 | 51.25897 | 9.04852 | 22395 ft | 411 kts | 2° |
| 2026-04-30 18:59 | 51.31653 | 9.05021 | 22376 ft | 408 kts | 9° |
| 2026-04-30 19:00 | 51.39963 | 9.07432 | 22391 ft | 404 kts | 15° |
| 2026-04-30 19:00 | 51.42720 | 9.08389 | 22379 ft | 405 kts | 15° |
| 2026-04-30 19:00 | 51.48223 | 9.10283 | 22387 ft | 405 kts | 15° |
| 2026-04-30 19:01 | 51.53824 | 9.11796 | 22370 ft | 407 kts | 11° |
| 2026-04-30 19:01 | 51.56611 | 9.12398 | 22386 ft | 407 kts | 11° |
| 2026-04-30 19:02 | 51.62217 | 9.13589 | 22381 ft | 407 kts | 11° |
| 2026-04-30 19:02 | 51.67861 | 9.14703 | 22383 ft | 408 kts | 5° |
| 2026-04-30 19:03 | 51.73397 | 9.12356 | 22381 ft | 419 kts | 343° |
| 2026-04-30 19:03 | 51.78864 | 9.09043 | 22377 ft | 420 kts | 344° |
| 2026-04-30 19:04 | 51.84401 | 9.05816 | 22382 ft | 420 kts | 344° |
| 2026-04-30 19:04 | 51.89910 | 9.02672 | 22391 ft | 420 kts | 344° |
| 2026-04-30 19:05 | 51.95418 | 8.99542 | 22389 ft | 420 kts | 344° |
| 2026-04-30 19:05 | 52.00954 | 8.96397 | 22396 ft | 419 kts | 345° |
| 2026-04-30 19:06 | 52.06424 | 8.93285 | 22039 ft | 418 kts | 345° |
| 2026-04-30 19:06 | 52.09157 | 8.91729 | 21787 ft | 416 kts | 345° |
| 2026-04-30 19:06 | 52.14435 | 8.88717 | 21279 ft | 414 kts | 345° |
| 2026-04-30 19:07 | 52.19634 | 8.85744 | 20779 ft | 412 kts | 345° |
| 2026-04-30 19:07 | 52.22232 | 8.84256 | 20532 ft | 411 kts | 345° |
| 2026-04-30 19:08 | 52.27535 | 8.81211 | 20031 ft | 408 kts | 345° |
| 2026-04-30 19:08 | 52.32854 | 8.78147 | 19531 ft | 405 kts | 345° |
| 2026-04-30 19:08 | 52.35503 | 8.76621 | 19292 ft | 403 kts | 345° |
| 2026-04-30 19:09 | 52.40846 | 8.73818 | 18809 ft | 400 kts | 347° |
| 2026-04-30 19:09 | 52.43512 | 8.72460 | 18554 ft | 409 kts | 347° |
| 2026-04-30 19:09 | 52.46219 | 8.71075 | 18330 ft | 410 kts | 347° |
| 2026-04-30 19:10 | 52.51675 | 8.68261 | 17843 ft | 410 kts | 347° |
| 2026-04-30 19:10 | 52.57109 | 8.65443 | 17357 ft | 408 kts | 347° |
| 2026-04-30 19:11 | 52.59813 | 8.64037 | 17110 ft | 406 kts | 347° |
| 2026-04-30 19:11 | 52.65190 | 8.61237 | 16618 ft | 404 kts | 347° |
| 2026-04-30 19:11 | 52.67876 | 8.59833 | 16371 ft | 403 kts | 347° |
| 2026-04-30 19:12 | 52.70523 | 8.58451 | 16126 ft | 402 kts | 347° |
| 2026-04-30 19:12 | 52.73207 | 8.57047 | 15879 ft | 401 kts | 347° |
| 2026-04-30 19:12 | 52.75831 | 8.55673 | 15633 ft | 401 kts | 347° |
| 2026-04-30 19:13 | 52.81113 | 8.52899 | 14768 ft | 396 kts | 347° |
| 2026-04-30 19:13 | 52.86245 | 8.50192 | 13036 ft | 379 kts | 347° |
| 2026-04-30 19:13 | 52.88741 | 8.48877 | 12162 ft | 369 kts | 347° |
| 2026-04-30 19:14 | 52.91135 | 8.47615 | 11304 ft | 360 kts | 347° |
| 2026-04-30 19:14 | 52.93416 | 8.46118 | 10426 ft | 357 kts | 333° |
| 2026-04-30 19:14 | 52.95292 | 8.43434 | 9549 ft | 357 kts | 311° |
| 2026-04-30 19:14 | 52.96455 | 8.39881 | 8681 ft | 355 kts | 289° |
| 2026-04-30 19:15 | 52.96908 | 8.35907 | 7812 ft | 350 kts | 277° |
| 2026-04-30 19:15 | 52.97319 | 8.28312 | 6635 ft | 324 kts | 274° |
| 2026-04-30 19:15 | 52.97495 | 8.24727 | 6167 ft | 310 kts | 274° |
| 2026-04-30 19:16 | 52.97665 | 8.21287 | 5786 ft | 295 kts | 274° |
| 2026-04-30 19:16 | 52.97815 | 8.18314 | 5361 ft | 288 kts | 274° |
| 2026-04-30 19:16 | 52.98122 | 8.12044 | 4597 ft | 277 kts | 274° |
| 2026-04-30 19:17 | 52.98259 | 8.08844 | 4212 ft | 274 kts | 273° |
| 2026-04-30 19:17 | 52.98527 | 8.02599 | 3525 ft | 268 kts | 273° |
| 2026-04-30 19:17 | 52.98683 | 7.99522 | 3264 ft | 263 kts | 278° |
| 2026-04-30 19:18 | 53.00177 | 7.95440 | 2983 ft | 250 kts | 332° |
| 2026-04-30 19:18 | 53.02405 | 7.94543 | 2985 ft | 251 kts | 12° |
| 2026-04-30 19:18 | 53.04066 | 7.95371 | 2988 ft | 246 kts | 27° |
| 2026-04-30 19:19 | 53.05487 | 7.96830 | 2963 ft | 237 kts | 52° |
| 2026-04-30 19:19 | 53.06227 | 7.99164 | 2970 ft | 232 kts | 81° |
| 2026-04-30 19:19 | 53.06294 | 8.04539 | 2968 ft | 232 kts | 94° |
| 2026-04-30 19:20 | 53.06133 | 8.07219 | 2965 ft | 232 kts | 97° |
| 2026-04-30 19:20 | 53.06002 | 8.09888 | 2964 ft | 232 kts | 94° |
| 2026-04-30 19:20 | 53.05842 | 8.15276 | 2965 ft | 234 kts | 93° |
| 2026-04-30 19:21 | 53.05763 | 8.17950 | 2965 ft | 234 kts | 93° |
| 2026-04-30 19:21 | 53.05604 | 8.23391 | 2964 ft | 234 kts | 93° |
| 2026-04-30 19:22 | 53.05444 | 8.28819 | 2961 ft | 234 kts | 93° |
| 2026-04-30 19:22 | 53.05195 | 8.36887 | 2960 ft | 234 kts | 93° |
| 2026-04-30 19:23 | 53.04947 | 8.44751 | 2949 ft | 210 kts | 93° |
| 2026-04-30 19:24 | 53.04807 | 8.49261 | 2936 ft | 178 kts | 93° |
| 2026-04-30 19:24 | 53.04631 | 8.51143 | 3015 ft | 153 kts | 103° |
| 2026-04-30 19:24 | 53.04273 | 8.54475 | 2741 ft | 145 kts | 95° |
| 2026-04-30 19:25 | 53.04279 | 8.59512 | 2142 ft | 147 kts | 89° |
| 2026-04-30 19:26 | 53.04350 | 8.62943 | 1716 ft | 148 kts | 89° |
| 2026-04-30 19:26 | 53.04417 | 8.66181 | 1331 ft | 145 kts | 90° |
| 2026-04-30 19:26 | 53.04454 | 8.67875 | 1130 ft | 140 kts | 90° |
| 2026-04-30 19:27 | 53.04521 | 8.71091 | 781 ft | 139 kts | 90° |
| 2026-04-30 19:27 | 53.04591 | 8.74304 | 411 ft | 138 kts | 89° |
| 2026-04-30 19:28 | 53.04625 | 8.75890 | 221 ft | 137 kts | 90° |
| 2026-04-30 19:28 | 53.04688 | 8.78911 | 15 ft | 104 kts | 88° |
| 2026-04-30 19:29 | 53.04721 | 8.80218 | 16 ft | 21 kts | 88° |
| 2026-04-30 19:29 | 53.04728 | 8.80398 | 16 ft | 9 kts | 69° |
| 2026-04-30 19:30 | 53.04882 | 8.80392 | 16 ft | 9 kts | 291° |
| 2026-04-30 19:30 | 53.04884 | 8.80165 | 16 ft | 10 kts | 268° |
| 2026-04-30 19:31 | 53.04877 | 8.79899 | 16 ft | 12 kts | 267° |
| 2026-04-30 19:31 | 53.04873 | 8.79753 | 16 ft | 12 kts | 267° |
| 2026-04-30 19:31 | 53.04867 | 8.79437 | 16 ft | 14 kts | 268° |
| 2026-04-30 19:32 | 53.04863 | 8.79265 | 15 ft | 15 kts | 268° |
| 2026-04-30 19:32 | 53.04859 | 8.79091 | 15 ft | 15 kts | 268° |
| 2026-04-30 19:32 | 53.04855 | 8.78928 | 15 ft | 13 kts | 268° |
| 2026-04-30 19:32 | 53.04852 | 8.78764 | 14 ft | 12 kts | 268° |
| 2026-04-30 19:33 | 53.04872 | 8.78670 | 14 ft | 6 kts | 329° |
| 2026-04-30 19:33 | 53.04924 | 8.78655 | 14 ft | 8 kts | 358° |
| 2026-04-30 19:33 | 53.04982 | 8.78643 | 14 ft | 7 kts | 332° |
| 2026-04-30 19:33 | 53.05027 | 8.78581 | 14 ft | 9 kts | 319° |
| 2026-04-30 19:34 | 53.05077 | 8.78507 | 14 ft | 10 kts | 319° |
| 2026-04-30 19:34 | 53.05117 | 8.78465 | 14 ft | 2 kts | 359° |
| 2026-04-30 19:34 | 53.05160 | 8.78517 | 14 ft | 4 kts | 49° |
| 2026-04-30 19:35 | 53.05167 | 8.78529 | 14 ft | 0 kts | 49° |
| 2026-04-30 19:35 | 53.05174 | 8.78544 | 14 ft | 0 kts | 49° |